Impacts TAF Board
For situational awareness. Not to be used for flight planning purposes.
IDs:

KIAH - Houston/Bush Intl, TX, US

Issued at 2330 UTC 19 Jan 2019
Updated at 2337 UTC 19 Jan 2019
Potential Impact None Slight Moderate High
Time2253Z 20/00Z 20/01Z 20/02Z 20/03Z 20/04Z 20/05Z 20/06Z 20/07Z 20/08Z 20/09Z 20/10Z 20/11Z 20/12Z>>
Type OBS PRVL PRVL PRVL PRVL PRVL PRVL PRVL PRVL PRVL PRVL PRVL PRVL PRVL
VIS 10 >6 >6 >6 >6 >6 >6 >6 >6 >6 >6 >6 >6 >6
CIG -- -- -- -- -- -- -- -- -- -- -- -- -- --
Cover FEW SKC SKC SKC SKC SKC SKC SKC SKC SKC SKC SKC SKC SKC
FltCat VFR VFR VFR VFR VFR VFR VFR VFR VFR VFR VFR VFR VFR VFR
WX -- -- -- -- -- -- -- -- -- -- -- -- -- --
WDir 330 330 330 330 340 340 340 340 340 340 340 340 340 340
WSpd 21 20 20 20 14 14 14 14 14 14 14 14 14 14
WGst 28 25 25 25 -- -- -- -- -- -- -- -- -- --
Raw TAF
KIAH 192330Z 2000/2106 33020G25KT P6SM SKC
  FM200300 34014KT P6SM SKC
  FM201300 35005KT P6SM SKC
  FM210000 04003KT P6SM SCT250


Raw METAR
KIAH 192253Z 33021G28KT 10SM FEW045 09/00 A3011 RMK AO2 PK WND 34033/2201 SLP197 T00940000
KIAH 192153Z 33020G30KT 10SM FEW047 11/01 A3007 RMK AO2 PK WND 31031/2113 SLP184 T01060006
KIAH 192053Z 31025G34KT 10SM SCT044 11/01 A3005 RMK AO2 PK WND 31034/2052 SLP177 T01060011 55001

METAR Board
Radar Display
Forecast Discussion
For situational awareness. Not to be used for flight planning purposes.